Time;durP1;ratioP1;P1;durP2;ratioP2;P2;SDS_P1;SDS_P2;PMS_P1;PMS_P2;Temp;Humidity;BMP_temperature;BMP_pressure;BME280_temperature;BME280_humidity;BME280_pressure;Samples;Min_cycle;Max_cycle;Signal;HPM_P1;HPM_P2
2022/12/15 00:40:58;;;;;;;0.63;0.40;;;;;;;;;;5137015;27;20146;-59
2022/12/15 00:43:24;;;;;;;0.57;0.50;;;;;;;;;;5137093;27;20096;-59
2022/12/15 00:48:35;;;;;;;0.52;0.45;;;;;;;;;;5139019;27;20096;-59
2022/12/15 00:51:01;;;;;;;0.77;0.65;;;;;;;;;;5136247;27;20534;-60
2022/12/15 01:20:57;;;;;;;0.75;0.40;;;;;;;;;;5131247;27;20044;-61
2022/12/15 01:23:23;;;;;;;0.60;0.50;;;;;;;;;;5119478;27;20046;-60
2022/12/15 01:25:50;;;;;;;0.73;0.60;;;;;;;;;;5139830;27;20130;-61
2022/12/15 01:28:16;;;;;;;1.52;1.17;;;;;;;;;;5136612;27;20046;-60
2022/12/15 01:30:42;;;;;;;4.32;2.10;;;;;;;;;;5133804;27;20047;-60
2022/12/15 01:33:08;;;;;;;4.30;2.03;;;;;;;;;;5135644;27;20065;-61
2022/12/15 01:35:34;;;;;;;2.63;1.65;;;;;;;;;;5137324;27;20046;-61
2022/12/15 01:38:00;;;;;;;2.65;1.58;;;;;;;;;;5134137;27;20043;-58
2022/12/15 01:40:45;;;;;;;1.63;1.17;;;;;;;;;;5136152;27;20042;-58
2022/12/15 01:43:21;;;;;;;2.10;1.60;;;;;;;;;;5132450;27;20083;-58
2022/12/15 01:45:53;;;;;;;3.70;1.70;;;;;;;;;;5134310;27;20497;-58
2022/12/15 01:48:23;;;;;;;1.42;1.17;;;;;;;;;;5132542;27;20043;-58
2022/12/15 01:50:55;;;;;;;2.22;1.38;;;;;;;;;;5134708;27;20039;-58
2022/12/15 01:53:21;;;;;;;1.75;1.50;;;;;;;;;;5132423;27;20054;-59
2022/12/15 01:55:47;;;;;;;2.17;1.23;;;;;;;;;;5133724;27;20054;-58
2022/12/15 01:58:15;;;;;;;1.77;1.05;;;;;;;;;;5135022;27;20042;-58
2022/12/15 02:00:42;;;;;;;1.23;1.00;;;;;;;;;;5133670;27;20050;-59
2022/12/15 02:03:09;;;;;;;1.85;1.33;;;;;;;;;;5132909;27;20035;-59
2022/12/15 02:05:35;;;;;;;3.60;1.58;;;;;;;;;;5137107;27;20083;-58
2022/12/15 02:08:02;;;;;;;2.92;1.52;;;;;;;;;;5136449;27;20084;-58
2022/12/15 02:10:32;;;;;;;3.05;1.52;;;;;;;;;;5135801;27;20117;-58
2022/12/15 02:13:05;;;;;;;1.33;0.93;;;;;;;;;;5133486;27;20043;-59
2022/12/15 02:15:34;;;;;;;2.55;1.20;;;;;;;;;;5134999;27;20047;-58
2022/12/15 02:18:03;;;;;;;1.98;0.95;;;;;;;;;;5131437;27;20231;-58
2022/12/15 02:20:41;;;;;;;1.20;0.90;;;;;;;;;;5135258;27;20043;-58
2022/12/15 02:23:26;;;;;;;1.25;0.90;;;;;;;;;;5133051;27;20179;-61
2022/12/15 02:26:20;;;;;;;1.17;0.77;;;;;;;;;;5135237;27;20042;-61
2022/12/15 02:28:51;;;;;;;0.68;0.60;;;;;;;;;;5136033;27;20086;-58
2022/12/15 02:34:13;;;;;;;0.30;0.30;;;;;;;;;;5134074;27;20134;-58
2022/12/15 02:36:40;;;;;;;0.40;0.38;;;;;;;;;;5134264;27;20039;-59
2022/12/15 02:39:06;;;;;;;0.63;0.45;;;;;;;;;;5132101;27;20406;-59
2022/12/15 02:41:34;;;;;;;0.30;0.30;;;;;;;;;;5135082;27;20035;-58
2022/12/15 02:44:07;;;;;;;0.80;0.30;;;;;;;;;;5136681;27;20495;-58
2022/12/15 02:46:51;;;;;;;0.70;0.50;;;;;;;;;;5137706;27;20092;-59
2022/12/15 02:49:45;;;;;;;0.70;0.30;;;;;;;;;;5136532;27;20455;-58
2022/12/15 02:52:11;;;;;;;1.02;0.70;;;;;;;;;;5137251;27;20798;-58
2022/12/15 02:54:46;;;;;;;0.30;0.30;;;;;;;;;;5143248;27;20061;-59
2022/12/15 02:57:12;;;;;;;0.45;0.40;;;;;;;;;;5135480;27;20039;-58
2022/12/15 02:59:42;;;;;;;0.85;0.30;;;;;;;;;;5136889;27;20053;-58
2022/12/15 03:02:09;;;;;;;0.50;0.30;;;;;;;;;;5136369;27;19961;-58
2022/12/15 03:04:35;;;;;;;;;;;;;;;;;;5138219;27;19973;-58
2022/12/15 03:07:02;;;;;;;;;;;;;;;;;;5128928;27;19980;-58
2022/12/15 03:09:28;;;;;;;;;;;;;;;;;;5134272;27;19931;-58
2022/12/15 03:11:54;;;;;;;;;;;;;;;;;;5129009;27;20298;-59
2022/12/15 03:14:20;;;;;;;;;;;;;;;;;;5138597;27;20424;-58
2022/12/15 03:16:46;;;;;;;;;;;;;;;;;;5136473;27;19928;-59
2022/12/15 03:19:12;;;;;;;;;;;;;;;;;;5130879;27;20366;-58
2022/12/15 03:21:38;;;;;;;;;;;;;;;;;;5129373;27;19931;-58
2022/12/15 03:24:04;;;;;;;;;;;;;;;;;;5137006;27;19934;-58
2022/12/15 03:26:30;;;;;;;0.40;0.40;;;;;;;;;;5132931;27;20447;-58
2022/12/15 03:28:56;;;;;;;2.15;0.60;;;;;;;;;;5131652;27;20316;-57
2022/12/15 03:31:22;;;;;;;0.50;0.50;;;;;;;;;;5134075;27;20134;-58
2022/12/15 03:33:48;;;;;;;0.38;0.28;;;;;;;;;;5137577;27;20550;-59
2022/12/15 03:36:13;;;;;;;;;;;;;;;;;;5137041;27;20034;-58
2022/12/15 03:38:39;;;;;;;0.30;0.30;;;;;;;;;;5139305;27;20335;-59
2022/12/15 03:41:05;;;;;;;;;;;;;;;;;;5127416;27;20043;-59
2022/12/15 03:43:31;;;;;;;;;;;;;;;;;;5134803;27;19958;-58
2022/12/15 03:45:57;;;;;;;;;;;;;;;;;;5138483;27;20462;-58
2022/12/15 03:48:23;;;;;;;;;;;;;;;;;;5143909;27;19919;-59
2022/12/15 03:50:49;;;;;;;;;;;;;;;;;;5136905;27;19934;-58
2022/12/15 03:53:15;;;;;;;;;;;;;;;;;;5137957;27;20320;-58
2022/12/15 03:55:41;;;;;;;;;;;;;;;;;;5137594;27;20388;-58
2022/12/15 03:58:07;;;;;;;;;;;;;;;;;;5138286;27;19924;-58
2022/12/15 04:00:33;;;;;;;;;;;;;;;;;;5139944;27;19948;-58
2022/12/15 04:02:58;;;;;;;;;;;;;;;;;;5135168;27;20400;-58
2022/12/15 04:05:24;;;;;;;;;;;;;;;;;;5134844;27;20416;-59
2022/12/15 04:07:50;;;;;;;;;;;;;;;;;;5136589;27;19926;-58
2022/12/15 04:10:16;;;;;;;;;;;;;;;;;;5137268;27;19923;-59
2022/12/15 04:12:42;;;;;;;;;;;;;;;;;;5140350;27;19919;-58
2022/12/15 04:15:08;;;;;;;;;;;;;;;;;;5139399;27;19958;-59
2022/12/15 04:17:34;;;;;;;;;;;;;;;;;;5134728;27;20390;-58
2022/12/15 04:20:09;;;;;;;;;;;;;;;;;;5136456;27;19922;-59
2022/12/15 04:22:35;;;;;;;;;;;;;;;;;;5137798;27;19946;-58
2022/12/15 05:33:33;;;;;;;;;;;;;;;;;;5138208;27;19920;-58
2022/12/15 05:35:59;;;;;;;;;;;;;;;;;;5137377;27;19923;-58
2022/12/15 05:38:25;;;;;;;;;;;;;;;;;;5139358;27;19942;-58
2022/12/15 05:40:51;;;;;;;;;;;;;;;;;;5132585;27;19935;-58
2022/12/15 05:43:17;;;;;;;;;;;;;;;;;;5137347;27;20349;-58
2022/12/15 05:45:43;;;;;;;;;;;;;;;;;;5137552;27;19919;-58
2022/12/15 05:48:09;;;;;;;;;;;;;;;;;;5137621;27;19940;-58
2022/12/15 05:50:35;;;;;;;;;;;;;;;;;;5136061;27;20293;-58
2022/12/15 05:53:01;;;;;;;;;;;;;;;;;;5139385;27;19923;-58
2022/12/15 05:55:27;;;;;;;;;;;;;;;;;;5139826;27;19927;-58
2022/12/15 05:57:53;;;;;;;;;;;;;;;;;;5135480;27;20010;-59
2022/12/15 06:00:19;;;;;;;;;;;;;;;;;;5133646;27;19923;-58
2022/12/15 06:02:45;;;;;;;;;;;;;;;;;;5136697;27;19923;-58
2022/12/15 06:05:11;;;;;;;;;;;;;;;;;;5133404;27;20417;-58
2022/12/15 06:07:37;;;;;;;;;;;;;;;;;;5135456;27;19923;-58
2022/12/15 06:10:03;;;;;;;;;;;;;;;;;;5134303;27;20395;-59
2022/12/15 06:12:29;;;;;;;;;;;;;;;;;;5135187;27;20267;-58
2022/12/15 06:14:54;;;;;;;;;;;;;;;;;;5134073;27;19972;-58
2022/12/15 06:17:20;;;;;;;;;;;;;;;;;;5131252;27;20365;-58
2022/12/15 06:19:46;;;;;;;;;;;;;;;;;;5137567;27;19962;-58
2022/12/15 06:22:12;;;;;;;;;;;;;;;;;;5134805;27;20006;-58
2022/12/15 06:24:38;;;;;;;;;;;;;;;;;;5136672;27;19940;-61
2022/12/15 06:27:04;;;;;;;;;;;;;;;;;;5135171;27;20168;-60
2022/12/15 06:29:30;;;;;;;;;;;;;;;;;;5135352;27;19934;-61
2022/12/15 06:31:56;;;;;;;;;;;;;;;;;;5136845;27;19941;-58
2022/12/15 06:34:22;;;;;;;;;;;;;;;;;;5136867;27;19930;-59
2022/12/15 06:36:48;;;;;;;;;;;;;;;;;;5130613;27;19927;-58
2022/12/15 06:39:14;;;;;;;;;;;;;;;;;;5136154;27;19931;-58
2022/12/15 06:41:40;;;;;;;;;;;;;;;;;;5141310;27;19923;-59
2022/12/15 06:44:06;;;;;;;;;;;;;;;;;;5137195;27;19926;-58
2022/12/15 06:46:32;;;;;;;;;;;;;;;;;;5131588;27;19919;-58
2022/12/15 06:48:57;;;;;;;;;;;;;;;;;;5137621;27;19926;-58
2022/12/15 06:51:23;;;;;;;;;;;;;;;;;;5136164;27;20318;-57
2022/12/15 06:53:52;;;;;;;;;;;;;;;;;;5140968;27;19919;-58
2022/12/15 06:56:23;;;;;;;4.20;2.20;;;;;;;;;;5132213;27;19924;-58
2022/12/15 06:58:49;;;;;;;3.05;1.85;;;;;;;;;;5139642;27;20497;-58
2022/12/15 07:01:16;;;;;;;3.75;3.05;;;;;;;;;;5131198;27;20049;-58
2022/12/15 07:03:42;;;;;;;3.20;2.10;;;;;;;;;;5137894;27;20043;-58
2022/12/15 07:06:10;;;;;;;2.50;2.03;;;;;;;;;;5129436;27;20083;-59
2022/12/15 07:08:36;;;;;;;;;;;;;;;;;;5140288;27;20051;-58
2022/12/15 07:11:02;;;;;;;;;;;;;;;;;;5130961;27;19923;-58
2022/12/15 07:13:28;;;;;;;;;;;;;;;;;;5136529;27;20337;-59
2022/12/15 07:15:54;;;;;;;;;;;;;;;;;;5136957;27;19922;-58
2022/12/15 07:18:20;;;;;;;;;;;;;;;;;;5134239;27;19919;-58
2022/12/15 07:20:46;;;;;;;;;;;;;;;;;;5132191;27;20270;-58
2022/12/15 07:23:13;;;;;;;;;;;;;;;;;;5137180;27;21119;-58
2022/12/15 07:25:39;;;;;;;4.40;3.15;;;;;;;;;;5142820;27;19926;-58
2022/12/15 07:28:05;;;;;;;;;;;;;;;;;;5138389;27;20049;-58
2022/12/15 07:30:31;;;;;;;;;;;;;;;;;;5137361;27;19919;-60
2022/12/15 07:32:57;;;;;;;;;;;;;;;;;;5140181;27;19927;-58
2022/12/15 07:35:23;;;;;;;;;;;;;;;;;;5136948;27;19927;-58
2022/12/15 07:37:49;;;;;;;;;;;;;;;;;;5137608;27;19919;-58
2022/12/15 07:40:15;;;;;;;;;;;;;;;;;;5139590;27;20024;-58
2022/12/15 07:42:41;;;;;;;;;;;;;;;;;;5138088;27;19927;-61
2022/12/15 07:45:07;;;;;;;;;;;;;;;;;;5126590;27;20308;-61
2022/12/15 07:47:33;;;;;;;;;;;;;;;;;;5138628;27;19962;-61
2022/12/15 07:49:58;;;;;;;;;;;;;;;;;;5134258;27;20053;-58
2022/12/15 07:52:24;;;;;;;;;;;;;;;;;;5137103;27;19926;-58
2022/12/15 07:54:50;;;;;;;4.63;3.05;;;;;;;;;;5140263;27;19923;-58
2022/12/15 07:57:17;;;;;;;5.03;3.05;;;;;;;;;;5138153;27;20031;-59
2022/12/15 07:59:43;;;;;;;4.80;3.90;;;;;;;;;;5136805;27;20053;-58
2022/12/15 08:02:13;;;;;;;4.38;2.72;;;;;;;;;;5131283;27;20039;-58
2022/12/15 08:04:39;;;;;;;4.13;3.10;;;;;;;;;;5135217;27;20039;-58
2022/12/15 08:07:05;;;;;;;3.03;2.45;;;;;;;;;;5131285;27;20062;-58
2022/12/15 08:09:31;;;;;;;5.95;3.42;;;;;;;;;;5129509;27;20055;-58
2022/12/15 08:11:57;;;;;;;3.85;3.15;;;;;;;;;;5135228;27;20042;-58
2022/12/15 08:14:24;;;;;;;6.43;3.60;;;;;;;;;;5133592;27;20510;-58
2022/12/15 08:16:50;;;;;;;8.18;4.72;;;;;;;;;;5133345;27;20033;-57
2022/12/15 08:19:16;;;;;;;5.13;4.05;;;;;;;;;;5138159;27;20039;-58
2022/12/15 08:21:47;;;;;;;4.70;3.15;;;;;;;;;;5140792;27;20061;-58
2022/12/15 08:24:13;;;;;;;3.95;3.42;;;;;;;;;;5110372;27;20509;-58
2022/12/15 08:26:40;;;;;;;6.55;4.68;;;;;;;;;;5137027;27;20035;-57
2022/12/15 08:29:08;;;;;;;7.85;4.45;;;;;;;;;;5137137;27;20043;-58
2022/12/15 08:31:34;;;;;;;7.55;4.10;;;;;;;;;;5133570;27;20122;-58
2022/12/15 08:34:01;;;;;;;5.13;3.92;;;;;;;;;;5138081;27;20469;-58
2022/12/15 08:36:27;;;;;;;5.13;3.97;;;;;;;;;;5146700;27;20072;-58
2022/12/15 08:38:55;;;;;;;7.47;4.15;;;;;;;;;;5138919;27;20039;-57
2022/12/15 08:41:23;;;;;;;6.55;3.70;;;;;;;;;;5135767;27;20093;-58
2022/12/15 08:43:50;;;;;;;5.45;4.53;;;;;;;;;;5137141;27;20480;-58
2022/12/15 08:46:16;;;;;;;7.40;5.10;;;;;;;;;;5131960;27;20031;-58
2022/12/15 08:48:42;;;;;;;11.55;5.18;;;;;;;;;;5136292;27;20486;-57
2022/12/15 08:51:09;;;;;;;7.70;4.57;;;;;;;;;;5135689;27;20517;-58
2022/12/15 08:53:35;;;;;;;6.80;4.72;;;;;;;;;;5136211;27;20405;-57
2022/12/15 08:56:02;;;;;;;5.70;4.22;;;;;;;;;;5140171;27;20046;-58
2022/12/15 08:58:28;;;;;;;7.57;3.95;;;;;;;;;;5137420;27;20046;-58
2022/12/15 09:00:59;;;;;;;8.02;3.97;;;;;;;;;;5132889;27;20397;-57
2022/12/15 09:03:26;;;;;;;5.70;4.68;;;;;;;;;;5128649;27;20511;-57
2022/12/15 09:05:52;;;;;;;5.72;4.13;;;;;;;;;;5127908;27;20047;-57
2022/12/15 09:08:18;;;;;;;5.35;4.03;;;;;;;;;;5146595;27;20062;-57
2022/12/15 09:10:44;;;;;;;7.10;4.35;;;;;;;;;;5150105;27;20043;-58
2022/12/15 09:13:10;;;;;;;6.63;4.25;;;;;;;;;;5137846;27;20078;-58
2022/12/15 09:15:36;;;;;;;4.40;4.00;;;;;;;;;;5143892;27;20041;-58
2022/12/15 09:18:02;;;;;;;5.55;3.78;;;;;;;;;;5147934;27;20057;-58
2022/12/15 09:20:28;;;;;;;4.75;4.07;;;;;;;;;;5148782;27;20465;-58
2022/12/15 09:22:54;;;;;;;7.28;4.13;;;;;;;;;;5138503;27;20131;-60
2022/12/15 09:25:20;;;;;;;4.10;3.67;;;;;;;;;;5137591;27;20061;-58
2022/12/15 09:27:46;;;;;;;6.70;5.07;;;;;;;;;;5148877;27;20467;-57
2022/12/15 09:30:12;;;;;;;7.00;4.68;;;;;;;;;;5149566;27;20038;-57
2022/12/15 09:32:38;;;;;;;8.32;4.38;;;;;;;;;;5138715;27;20046;-58
2022/12/15 09:35:04;;;;;;;7.22;4.05;;;;;;;;;;5136236;27;20043;-59
2022/12/15 09:37:31;;;;;;;9.55;5.45;;;;;;;;;;5138479;27;20043;-58
2022/12/15 09:39:57;;;;;;;7.82;5.20;;;;;;;;;;5139983;27;20538;-58
2022/12/15 09:42:25;;;;;;;8.57;5.22;;;;;;;;;;5139158;27;20043;-58
2022/12/15 09:45:11;;;;;;;7.63;4.97;;;;;;;;;;5130816;27;20124;-59
2022/12/15 09:47:37;;;;;;;6.97;5.10;;;;;;;;;;5133104;27;20057;-58
2022/12/15 09:50:06;;;;;;;6.40;5.00;;;;;;;;;;5133039;27;20122;-59
2022/12/15 09:52:41;;;;;;;6.07;4.30;;;;;;;;;;5130570;27;20130;-59
2022/12/15 09:55:33;;;;;;;8.15;4.70;;;;;;;;;;5130334;27;20078;-58
2022/12/15 09:58:08;;;;;;;8.48;4.95;;;;;;;;;;5127042;27;20065;-58
2022/12/15 10:00:37;;;;;;;8.82;4.70;;;;;;;;;;5130865;27;20489;-58
2022/12/15 10:03:19;;;;;;;6.57;4.53;;;;;;;;;;5135261;27;20081;-58
2022/12/15 10:06:04;;;;;;;8.20;4.97;;;;;;;;;;5130951;27;20597;-58
2022/12/15 10:08:50;;;;;;;8.05;4.90;;;;;;;;;;5127851;27;20308;-59
2022/12/15 10:11:34;;;;;;;6.93;4.60;;;;;;;;;;5089133;27;20099;-58
2022/12/15 10:14:12;;;;;;;7.93;5.45;;;;;;;;;;5140863;27;20082;-58
2022/12/15 10:16:58;;;;;;;9.98;5.40;;;;;;;;;;5129256;27;20043;-58
2022/12/15 10:19:36;;;;;;;10.65;5.63;;;;;;;;;;5148567;27;20130;-57
2022/12/15 10:22:02;;;;;;;5.72;4.40;;;;;;;;;;5143871;27;20031;-57
2022/12/15 10:24:29;;;;;;;5.53;4.82;;;;;;;;;;5127615;27;20054;-58
2022/12/15 10:27:02;;;;;;;6.53;5.63;;;;;;;;;;5127751;27;20216;-58
2022/12/15 10:29:43;;;;;;;11.13;5.47;;;;;;;;;;5127239;27;20148;-57
2022/12/15 10:32:20;;;;;;;7.00;5.25;;;;;;;;;;5139759;27;20043;-57
2022/12/15 10:34:46;;;;;;;8.05;5.10;;;;;;;;;;5127738;27;20039;-58
2022/12/15 10:37:13;;;;;;;9.23;5.70;;;;;;;;;;5126151;27;20440;-57
2022/12/15 10:39:41;;;;;;;6.70;4.75;;;;;;;;;;5127987;27;20039;-58
2022/12/15 10:42:11;;;;;;;7.32;5.25;;;;;;;;;;5137921;27;20087;-57
2022/12/15 10:44:39;;;;;;;6.85;4.50;;;;;;;;;;5135342;27;20080;-57
2022/12/15 10:47:09;;;;;;;7.18;5.10;;;;;;;;;;5135046;27;20374;-57
2022/12/15 10:49:36;;;;;;;5.90;4.45;;;;;;;;;;5131375;27;20043;-60
2022/12/15 10:52:02;;;;;;;5.00;4.50;;;;;;;;;;5126979;27;20509;-63
2022/12/15 10:54:43;;;;;;;6.93;3.83;;;;;;;;;;5143841;27;20462;-55
2022/12/15 10:57:20;;;;;;;7.55;4.68;;;;;;;;;;5138478;27;20039;-56
2022/12/15 10:59:46;;;;;;;7.50;5.35;;;;;;;;;;5129245;27;20122;-55
2022/12/15 11:02:22;;;;;;;6.95;4.20;;;;;;;;;;5137099;27;20074;-56
2022/12/15 11:04:54;;;;;;;5.75;4.22;;;;;;;;;;5138427;27;20054;-56
2022/12/15 11:07:20;;;;;;;7.50;5.25;;;;;;;;;;5126819;27;20039;-56
2022/12/15 11:09:48;;;;;;;7.65;4.90;;;;;;;;;;5127142;28;20050;-57
2022/12/15 11:15:32;;;;;;;6.07;4.40;;;;;;;;;;5130172;27;20043;-58
2022/12/15 11:18:10;;;;;;;7.65;4.25;;;;;;;;;;5114709;27;20068;-57
2022/12/15 11:21:02;;;;;;;6.68;4.95;;;;;;;;;;5133450;27;20061;-57
2022/12/15 11:23:31;;;;;;;7.20;4.97;;;;;;;;;;5124449;27;20529;-57
2022/12/15 11:26:03;;;;;;;5.78;4.00;;;;;;;;;;5126404;27;20078;-57
2022/12/15 11:28:34;;;;;;;7.38;4.70;;;;;;;;;;5126715;27;20043;-57
2022/12/15 11:31:02;;;;;;;7.07;4.88;;;;;;;;;;5127714;27;20142;-57
2022/12/15 11:33:28;;;;;;;8.07;5.10;;;;;;;;;;5126610;27;20474;-60
2022/12/15 11:36:08;;;;;;;6.30;4.10;;;;;;;;;;5126979;27;20115;-59
2022/12/15 11:38:42;;;;;;;9.48;4.53;;;;;;;;;;5139621;27;20050;-60
2022/12/15 11:41:28;;;;;;;7.43;5.00;;;;;;;;;;5137199;27;20055;-60
2022/12/15 11:44:13;;;;;;;9.82;4.35;;;;;;;;;;5112701;28;20532;-59
2022/12/15 11:46:42;;;;;;;7.57;3.65;;;;;;;;;;5138747;27;20041;-59
2022/12/15 11:49:19;;;;;;;6.60;4.32;;;;;;;;;;5133385;27;20050;-60
2022/12/15 11:51:51;;;;;;;5.15;3.95;;;;;;;;;;5127580;27;20110;-60
2022/12/15 11:54:29;;;;;;;5.97;5.00;;;;;;;;;;5125214;27;20047;-60
2022/12/15 11:57:14;;;;;;;6.63;4.47;;;;;;;;;;5126488;27;20035;-60
2022/12/15 11:59:46;;;;;;;4.68;3.65;;;;;;;;;;5126782;27;20134;-60
2022/12/15 12:02:31;;;;;;;6.78;4.07;;;;;;;;;;5125783;27;20031;-61
2022/12/15 12:04:57;;;;;;;4.97;3.88;;;;;;;;;;5125695;27;20193;-61
2022/12/15 12:07:23;;;;;;;7.97;3.70;;;;;;;;;;5127307;27;20042;-60
2022/12/15 12:10:07;;;;;;;9.57;3.97;;;;;;;;;;5134609;27;20122;-60
2022/12/15 12:12:38;;;;;;;6.47;3.85;;;;;;;;;;5136340;27;20062;-60
2022/12/15 12:15:04;;;;;;;8.52;3.50;;;;;;;;;;5135402;27;20039;-60
2022/12/15 12:17:50;;;;;;;8.77;3.40;;;;;;;;;;5132943;27;20047;-61
2022/12/15 12:20:21;;;;;;;4.93;3.10;;;;;;;;;;5139870;27;20134;-61
2022/12/15 12:23:03;;;;;;;9.07;4.15;;;;;;;;;;5131411;27;20042;-60
2022/12/15 12:25:32;;;;;;;6.07;3.70;;;;;;;;;;5134749;27;20523;-60
2022/12/15 12:28:01;;;;;;;8.73;4.53;;;;;;;;;;5139172;27;20318;-60
2022/12/15 12:30:31;;;;;;;8.32;3.95;;;;;;;;;;5132793;27;20506;-60
2022/12/15 12:33:16;;;;;;;6.25;3.88;;;;;;;;;;5134082;27;20031;-60
2022/12/15 12:35:57;;;;;;;6.45;3.80;;;;;;;;;;5139785;27;20465;-60
2022/12/15 12:38:30;;;;;;;5.43;3.60;;;;;;;;;;5132837;27;20051;-60
2022/12/15 12:40:56;;;;;;;;;;;;;;;;;;5139550;27;20046;-60
2022/12/15 12:43:37;;;;;;;7.70;3.40;;;;;;;;;;5129459;27;19919;-60
2022/12/15 12:46:03;;;;;;;8.23;4.30;;;;;;;;;;5131682;27;20031;-60
2022/12/15 12:48:38;;;;;;;10.18;3.63;;;;;;;;;;5139978;27;20666;-60
2022/12/15 12:51:27;;;;;;;8.45;3.70;;;;;;;;;;5134509;27;20035;-60
2022/12/15 12:53:53;;;;;;;3.28;2.58;;;;;;;;;;5126451;27;20043;-60
2022/12/15 12:56:37;;;;;;;6.43;3.47;;;;;;;;;;5128885;27;20494;-61
2022/12/15 12:59:07;;;;;;;6.47;3.35;;;;;;;;;;5130593;27;20078;-60
2022/12/15 13:01:34;;;;;;;5.03;2.63;;;;;;;;;;5136080;27;20050;-61
2022/12/15 13:04:07;;;;;;;6.45;3.00;;;;;;;;;;5138667;27;20046;-61
2022/12/15 13:06:33;;;;;;;6.07;3.55;;;;;;;;;;5130397;27;20419;-61
2022/12/15 13:09:19;;;;;;;13.00;4.60;;;;;;;;;;5134716;27;20767;-60
2022/12/15 13:11:49;;;;;;;17.40;5.90;;;;;;;;;;5135260;27;20039;-60
2022/12/15 13:14:20;;;;;;;15.85;5.18;;;;;;;;;;5133551;27;20067;-60
2022/12/15 13:16:46;;;;;;;10.32;4.40;;;;;;;;;;5143751;27;20043;-61
2022/12/15 13:19:13;;;;;;;5.47;3.33;;;;;;;;;;5128168;27;20035;-61
2022/12/15 13:21:45;;;;;;;8.88;3.60;;;;;;;;;;5131325;27;20035;-60
2022/12/15 13:24:29;;;;;;;4.90;3.38;;;;;;;;;;5130512;27;20047;-60
2022/12/15 13:27:08;;;;;;;6.47;3.30;;;;;;;;;;5138865;27;20082;-61
2022/12/15 13:29:34;;;;;;;4.47;3.70;;;;;;;;;;5113345;27;20104;-61
2022/12/15 13:32:00;;;;;;;5.50;3.05;;;;;;;;;;5128328;27;20051;-61
2022/12/15 13:34:27;;;;;;;5.50;2.67;;;;;;;;;;5128515;27;20046;-61
2022/12/15 13:36:54;;;;;;;6.05;2.78;;;;;;;;;;5129036;27;20092;-60
2022/12/15 13:39:26;;;;;;;3.92;3.17;;;;;;;;;;5127880;27;20127;-60
2022/12/15 13:41:53;;;;;;;4.78;2.55;;;;;;;;;;5129226;27;20031;-60
2022/12/15 13:44:38;;;;;;;5.25;2.80;;;;;;;;;;5128585;27;20051;-60
2022/12/15 13:47:21;;;;;;;5.40;2.72;;;;;;;;;;5133203;27;20039;-60
2022/12/15 13:49:49;;;;;;;6.45;4.20;;;;;;;;;;5128913;27;20047;-59
2022/12/15 13:52:31;;;;;;;4.85;2.70;;;;;;;;;;5140078;27;20068;-61
2022/12/15 13:54:57;;;;;;;;;;;;;;;;;;5132792;27;20043;-61
2022/12/15 13:57:24;;;;;;;5.95;2.50;;;;;;;;;;5128397;27;20305;-60
2022/12/15 13:59:52;;;;;;;8.65;3.55;;;;;;;;;;5126538;27;20046;-61
2022/12/15 14:02:24;;;;;;;4.63;3.00;;;;;;;;;;5146861;27;20034;-61
2022/12/15 14:05:03;;;;;;;8.75;3.00;;;;;;;;;;5130289;27;20378;-61
2022/12/15 14:07:29;;;;;;;5.72;3.03;;;;;;;;;;5146220;27;20057;-61
2022/12/15 14:09:56;;;;;;;3.35;3.00;;;;;;;;;;5128859;27;20055;-60
2022/12/15 14:12:22;;;;;;;4.70;4.03;;;;;;;;;;5147367;27;20142;-61
2022/12/15 14:14:49;;;;;;;5.70;3.67;;;;;;;;;;5146844;27;20110;-60
2022/12/15 14:17:16;;;;;;;4.10;3.03;;;;;;;;;;5147105;27;20404;-61
2022/12/15 14:19:45;;;;;;;7.65;3.17;;;;;;;;;;5147013;27;20142;-60
2022/12/15 14:22:27;;;;;;;4.72;2.42;;;;;;;;;;5147418;27;20062;-61
2022/12/15 14:25:00;;;;;;;6.47;3.05;;;;;;;;;;5149174;27;20039;-61
2022/12/15 14:27:28;;;;;;;4.03;2.80;;;;;;;;;;5148467;27;20043;-60
2022/12/15 14:30:09;;;;;;;4.35;2.50;;;;;;;;;;5139907;27;20035;-61
2022/12/15 14:32:35;;;;;;;4.88;2.97;;;;;;;;;;5142155;27;20308;-60
2022/12/15 14:35:01;;;;;;;5.40;2.33;;;;;;;;;;5136352;27;20078;-60
2022/12/15 14:37:28;;;;;;;8.75;2.35;;;;;;;;;;5129394;27;20038;-60
2022/12/15 14:39:54;;;;;;;6.82;2.55;;;;;;;;;;5126047;27;20047;-60
2022/12/15 14:42:25;;;;;;;6.57;2.72;;;;;;;;;;5126894;27;20039;-61
2022/12/15 14:44:51;;;;;;;7.53;2.97;;;;;;;;;;5127918;27;20050;-60
2022/12/15 14:47:17;;;;;;;4.97;2.78;;;;;;;;;;5127350;27;20192;-61
2022/12/15 14:49:44;;;;;;;6.63;2.65;;;;;;;;;;5127301;27;20525;-60
2022/12/15 14:52:19;;;;;;;4.50;2.63;;;;;;;;;;5127424;27;20139;-61
2022/12/15 14:54:54;;;;;;;6.68;3.67;;;;;;;;;;5127694;27;20035;-60
2022/12/15 14:57:20;;;;;;;14.75;5.40;;;;;;;;;;5126201;27;20513;-60
2022/12/15 14:59:47;;;;;;;13.95;5.55;;;;;;;;;;5139239;27;20066;-60
2022/12/15 15:02:18;;;;;;;7.07;4.05;;;;;;;;;;5138194;27;20078;-60
2022/12/15 15:04:55;;;;;;;7.43;4.90;;;;;;;;;;5135965;27;20235;-60
2022/12/15 15:07:21;;;;;;;4.63;2.95;;;;;;;;;;5136547;27;20066;-60
2022/12/15 15:09:48;;;;;;;4.68;2.90;;;;;;;;;;5131006;27;20047;-60
2022/12/15 15:12:16;;;;;;;7.13;3.17;;;;;;;;;;5141670;27;20123;-60
2022/12/15 15:14:44;;;;;;;4.65;3.33;;;;;;;;;;5148106;27;20046;-60
2022/12/15 15:17:15;;;;;;;3.40;2.03;;;;;;;;;;5145957;27;20466;-60
2022/12/15 15:19:50;;;;;;;5.07;2.88;;;;;;;;;;5145901;27;20110;-61
2022/12/15 15:22:35;;;;;;;5.82;2.70;;;;;;;;;;5146946;27;20083;-60
2022/12/15 15:25:01;;;;;;;6.53;3.40;;;;;;;;;;5143880;27;20092;-60
2022/12/15 15:27:31;;;;;;;4.57;2.95;;;;;;;;;;5148294;27;20113;-60
2022/12/15 15:30:12;;;;;;;5.28;3.05;;;;;;;;;;5148142;27;20358;-60
2022/12/15 15:32:49;;;;;;;3.55;2.53;;;;;;;;;;5146834;27;20130;-60
2022/12/15 15:35:15;;;;;;;2.97;2.67;;;;;;;;;;5146720;27;20328;-60
2022/12/15 15:37:41;;;;;;;3.22;2.90;;;;;;;;;;5147649;27;20039;-59
2022/12/15 15:40:10;;;;;;;8.35;3.70;;;;;;;;;;5147739;27;20046;-61
2022/12/15 15:42:36;;;;;;;11.30;4.50;;;;;;;;;;5150991;27;20042;-60
2022/12/15 15:45:02;;;;;;;6.25;4.10;;;;;;;;;;5152368;27;20057;-60
2022/12/15 15:47:28;;;;;;;4.90;3.58;;;;;;;;;;5149962;27;20171;-61
2022/12/15 15:49:54;;;;;;;6.68;3.92;;;;;;;;;;5151984;27;20114;-60
2022/12/15 15:52:21;;;;;;;11.55;6.32;;;;;;;;;;5151215;27;20039;-60
2022/12/15 15:54:47;;;;;;;11.05;5.57;;;;;;;;;;5137156;27;20053;-60
2022/12/15 15:57:14;;;;;;;10.00;5.28;;;;;;;;;;5132937;27;20058;-61
2022/12/15 15:59:41;;;;;;;10.77;4.05;;;;;;;;;;5138089;27;20121;-60
2022/12/15 16:02:08;;;;;;;7.55;3.83;;;;;;;;;;5144830;27;20179;-61
2022/12/15 16:04:36;;;;;;;4.55;3.42;;;;;;;;;;5133461;27;20121;-60
2022/12/15 16:07:03;;;;;;;4.68;3.17;;;;;;;;;;5138391;27;20076;-60
2022/12/15 16:09:29;;;;;;;3.88;2.60;;;;;;;;;;5143445;27;20067;-61
2022/12/15 16:11:55;;;;;;;5.40;2.70;;;;;;;;;;5135488;27;20249;-61
2022/12/15 16:14:21;;;;;;;5.65;2.90;;;;;;;;;;5135788;27;20054;-60
2022/12/15 16:16:47;;;;;;;3.65;2.78;;;;;;;;;;5135785;27;20043;-61
2022/12/15 16:19:13;;;;;;;3.67;3.10;;;;;;;;;;5144609;27;20081;-60
2022/12/15 16:21:39;;;;;;;3.03;2.60;;;;;;;;;;5137349;27;20127;-60
2022/12/15 16:24:08;;;;;;;3.72;2.47;;;;;;;;;;5135616;27;20039;-60
2022/12/15 16:26:37;;;;;;;5.00;3.05;;;;;;;;;;5146516;27;20134;-60
2022/12/15 16:29:06;;;;;;;5.55;3.70;;;;;;;;;;5134324;27;20054;-60
2022/12/15 16:31:35;;;;;;;5.40;3.50;;;;;;;;;;5138335;27;20035;-60
2022/12/15 16:34:01;;;;;;;5.25;3.15;;;;;;;;;;5134576;27;20051;-60
2022/12/15 16:36:28;;;;;;;5.60;3.08;;;;;;;;;;5139909;27;20076;-60
2022/12/15 16:38:54;;;;;;;5.07;2.92;;;;;;;;;;5137086;27;20126;-61
2022/12/15 16:41:22;;;;;;;4.88;2.83;;;;;;;;;;5143996;27;20129;-60
2022/12/15 16:43:48;;;;;;;3.67;2.85;;;;;;;;;;5144305;27;20493;-60
2022/12/15 16:46:14;;;;;;;7.07;3.67;;;;;;;;;;5143839;27;20083;-60
2022/12/15 16:48:41;;;;;;;3.78;3.35;;;;;;;;;;5142347;27;20047;-60
2022/12/15 16:51:08;;;;;;;4.13;2.88;;;;;;;;;;5139115;27;20478;-60
2022/12/15 16:53:38;;;;;;;5.70;2.50;;;;;;;;;;5141284;27;20394;-60
2022/12/15 16:56:05;;;;;;;3.75;2.92;;;;;;;;;;5136210;27;20046;-61
2022/12/15 16:58:33;;;;;;;4.78;3.67;;;;;;;;;;5146234;27;20050;-61
2022/12/15 17:00:59;;;;;;;5.88;3.90;;;;;;;;;;5150647;27;20520;-60
2022/12/15 17:03:25;;;;;;;3.50;3.15;;;;;;;;;;5139655;27;20039;-60
2022/12/15 17:05:52;;;;;;;5.25;3.85;;;;;;;;;;5132143;27;20127;-61
2022/12/15 17:08:39;;;;;;;6.10;3.67;;;;;;;;;;5136824;27;20059;-61
2022/12/15 17:11:05;;;;;;;5.72;4.10;;;;;;;;;;5143364;27;20168;-60
2022/12/15 17:13:34;;;;;;;4.45;3.17;;;;;;;;;;5139907;27;20043;-60
2022/12/15 17:16:00;;;;;;;7.32;5.00;;;;;;;;;;5139365;27;20042;-60
2022/12/15 17:18:26;;;;;;;5.88;4.70;;;;;;;;;;5136353;27;20071;-60
2022/12/15 17:21:02;;;;;;;7.30;5.18;;;;;;;;;;5135109;27;20213;-61
2022/12/15 17:23:29;;;;;;;8.20;5.43;;;;;;;;;;5136654;27;20120;-60
2022/12/15 17:25:55;;;;;;;8.80;5.78;;;;;;;;;;5119080;27;20035;-60
2022/12/15 17:28:26;;;;;;;6.85;5.28;;;;;;;;;;5136646;27;20047;-60
2022/12/15 17:30:52;;;;;;;6.18;4.43;;;;;;;;;;5137272;27;20054;-61
2022/12/15 17:33:22;;;;;;;7.13;5.07;;;;;;;;;;5136779;27;20046;-61
2022/12/15 17:35:49;;;;;;;6.68;5.40;;;;;;;;;;5148396;27;20151;-60
2022/12/15 17:38:17;;;;;;;6.97;5.72;;;;;;;;;;5140695;27;20050;-61
2022/12/15 17:40:43;;;;;;;6.93;5.50;;;;;;;;;;5142800;27;20039;-61
2022/12/15 17:43:13;;;;;;;7.07;5.15;;;;;;;;;;5133009;27;20039;-61
2022/12/15 17:45:39;;;;;;;5.72;4.80;;;;;;;;;;5134168;27;20047;-61